Skip to main content Skip to accessibility
This website is not compatible with your web browser. You should install a newer browser. If you live in Jersey and need help upgrading call the States of Jersey web team on 440099.
Homegov.je

Information and public services for the Island of Jersey

L'înformâtion et les sèrvices publyis pouor I'Île dé Jèrri

  • Choose the service you want to log in to:

  • gov.je

    Update your notification preferences

  • one.gov.je

    Access government services

  • CAESAR

    Clear goods through customs or claim relief

  • Talentlink

    View or update your States of Jersey job application

CI Airfield TAFs

JERSEY - EGJJ

EGJJ 182302Z 1900/1909 29018KT 9999 FEW015 SCT025 PROB40 TEMPO 1900/1904 30022G32KT 8000 SHRA BKN015TCU BECMG 1907/1909 23010KT PROB40 TEMPO 1908/1909 6000 RA SCT008 BKN015=

GUERNSEY - EGJB

EGJB 182302Z 1900/1909 29019KT 9999 FEW015 SCT025 PROB40 TEMPO 1900/1904 30022G35KT 8000 SHRA BKN015TCU BECMG 1907/1909 23012KT PROB40 TEMPO 1907/1909 6000 RA SCT006 BKN015=

ALDERNEY - EGJA

EGJA 181404Z 1815/1900 24025KT 9999 SCT020 TEMPO 1815/1900 4000 +SHRAGS BKN014CB TEMPO 1815/1818 25028G40KT BECMG 1817/1819 28026G39KT=

Back to top
rating button